Time;durP1;ratioP1;P1;durP2;ratioP2;P2;SDS_P1;SDS_P2;PMS_P1;PMS_P2;Temp;Humidity;BMP_temperature;BMP_pressure;BME280_temperature;BME280_humidity;BME280_pressure;Samples;Min_cycle;Max_cycle;Signal;HPM_P1;HPM_P2
2022/05/27 00:03:29;;;;;;;5.73;2.50;;;;;;;16.10;62.30;100342.77;3359372;85;99237;-84
2022/05/27 00:08:30;;;;;;;6.90;2.87;;;;;;;16.12;62.67;100339.55;3387470;85;33224;-85
2022/05/27 00:13:31;;;;;;;8.73;2.85;;;;;;;16.11;63.05;100327.67;3393317;85;99070;-83
2022/05/27 00:18:32;;;;;;;7.10;2.40;;;;;;;16.10;63.33;100330.27;3401138;84;98660;-84
2022/05/27 00:23:34;;;;;;;5.47;2.40;;;;;;;16.08;63.83;100320.79;3356769;85;98986;-84
2022/05/27 00:28:35;;;;;;;8.13;3.30;;;;;;;16.05;64.01;100315.46;3380578;85;99192;-82
2022/05/27 00:33:39;;;;;;;10.50;3.30;;;;;;;16.05;64.14;100310.50;3389999;85;98929;-84
2022/05/27 00:38:42;;;;;;;6.60;2.83;;;;;;;16.02;64.55;100300.24;3401257;84;99480;-84
2022/05/27 00:43:44;;;;;;;8.73;3.08;;;;;;;15.98;64.79;100293.33;3384380;85;98990;-83
2022/05/27 00:48:50;;;;;;;7.50;2.87;;;;;;;15.98;65.33;100296.72;3409768;84;99118;-83
2022/05/27 00:54:03;;;;;;;12.70;3.20;;;;;;;15.94;65.36;100288.44;3386723;85;98973;-82
2022/05/27 00:59:09;;;;;;;11.57;2.93;;;;;;;15.92;65.79;100290.83;3401621;84;99052;-84
2022/05/27 01:04:11;;;;;;;8.67;2.67;;;;;;;15.88;66.21;100276.23;3396008;84;99066;-83
2022/05/27 01:09:13;;;;;;;11.10;3.17;;;;;;;15.84;66.48;100266.36;3390021;85;99262;-83
2022/05/27 01:14:40;;;;;;;7.78;2.83;;;;;;;15.83;66.69;100266.17;3386908;85;98797;-84
2022/05/27 01:20:21;;;;;;;7.07;2.73;;;;;;;15.81;66.87;100257.49;3413246;84;98462;-84
2022/05/27 01:25:39;;;;;;;7.17;2.73;;;;;;;15.78;67.09;100253.56;3387252;85;99240;-83
2022/05/27 01:31:13;;;;;;;7.40;2.83;;;;;;;15.74;67.37;100251.42;3390316;84;99334;-83
2022/05/27 01:36:48;;;;;;;7.93;3.27;;;;;;;15.73;67.64;100239.34;3373414;85;99440;-84
2022/05/27 01:42:19;;;;;;;7.90;2.47;;;;;;;15.71;68.09;100226.50;3386240;85;99497;-83
2022/05/27 01:47:50;;;;;;;9.45;3.35;;;;;;;15.66;68.50;100227.76;3392745;84;99689;-84
2022/05/27 01:53:16;;;;;;;6.20;2.67;;;;;;;15.63;68.93;100227.19;3392758;84;99524;-84
2022/05/27 01:58:25;;;;;;;6.47;2.90;;;;;;;15.60;69.25;100228.01;3393517;85;99345;-84
2022/05/27 02:03:47;;;;;;;7.47;3.05;;;;;;;15.58;69.79;100217.17;3383165;85;99522;-84
2022/05/27 02:09:03;;;;;;;8.07;2.83;;;;;;;15.50;70.57;100209.53;3372534;85;99517;-84
2022/05/27 02:14:24;;;;;;;10.55;3.40;;;;;;;15.46;71.40;100206.01;3393796;84;98755;-85
2022/05/27 02:19:48;;;;;;;7.40;3.40;;;;;;;15.42;73.13;100197.55;3402685;84;98753;-85
2022/05/27 02:24:55;;;;;;;6.67;3.27;;;;;;;15.35;73.55;100199.80;3394303;85;99156;-84
2022/05/27 02:30:00;;;;;;;6.07;2.87;;;;;;;15.31;73.87;100196.86;3408463;85;99166;-85
2022/05/27 02:35:19;;;;;;;7.57;3.13;;;;;;;15.25;74.48;100190.98;3379208;85;99068;-85
2022/05/27 02:40:25;;;;;;;7.10;3.27;;;;;;;15.21;75.22;100187.45;3379990;85;98893;-85
2022/05/27 02:46:04;;;;;;;10.70;3.47;;;;;;;15.16;76.01;100175.42;3381038;85;99190;-85
2022/05/27 02:51:19;;;;;;;6.92;3.37;;;;;;;15.09;77.54;100171.36;3389368;84;99127;-83
2022/05/27 02:56:31;;;;;;;9.10;3.37;;;;;;;14.97;77.68;100176.05;3393513;84;26010;-86
2022/05/27 03:01:32;;;;;;;6.80;3.62;;;;;;;14.91;78.29;100172.75;3395609;85;98875;-85
2022/05/27 03:06:48;;;;;;;9.23;3.83;;;;;;;14.86;78.70;100169.84;3402986;84;98638;-86
2022/05/27 03:12:11;;;;;;;11.03;4.43;;;;;;;14.84;79.07;100168.67;3374516;85;98828;-87
2022/05/27 03:17:42;;;;;;;9.37;4.00;;;;;;;14.78;79.70;100167.55;3405372;84;99044;-86
2022/05/27 03:23:10;;;;;;;9.17;4.47;;;;;;;14.70;80.99;100170.19;3380486;85;99210;-85
2022/05/27 03:28:28;;;;;;;8.73;5.07;;;;;;;14.56;82.04;100173.11;3376754;85;98924;-84
2022/05/27 03:33:37;;;;;;;10.13;5.47;;;;;;;14.45;84.16;100171.03;3386250;85;98968;-84
2022/05/27 03:38:44;;;;;;;9.90;4.77;;;;;;;14.34;84.63;100185.56;3399105;85;26035;-89
2022/05/27 03:43:46;;;;;;;11.30;6.67;;;;;;;14.26;85.21;100179.87;3369499;85;99144;-89
2022/05/27 03:48:47;;;;;;;12.87;7.40;;;;;;;14.17;86.46;100167.85;3396781;84;98929;-84
2022/05/27 03:54:03;;;;;;;13.97;8.17;;;;;;;14.12;87.58;100162.75;3356623;84;99488;-88
2022/05/27 03:59:06;;;;;;;15.58;7.70;;;;;;;14.05;89.27;100170.31;3390005;84;99399;-88
2022/05/27 04:04:10;;;;;;;12.78;8.35;;;;;;;14.00;91.60;100162.47;3396331;85;99083;-89
2022/05/27 04:09:11;;;;;;;14.10;8.00;;;;;;;13.96;91.15;100158.93;3383582;85;99150;-88
2022/05/27 04:14:12;;;;;;;13.40;7.40;;;;;;;13.97;92.38;100161.88;3372873;85;98880;-89
2022/05/27 04:19:14;;;;;;;13.40;7.47;;;;;;;13.97;95.46;100159.11;3403985;85;98862;-88
2022/05/27 04:24:15;;;;;;;13.47;7.40;;;;;;;13.95;93.50;100159.52;3390183;85;98960;-89
2022/05/27 04:29:15;;;;;;;12.93;7.20;;;;;;;13.96;93.94;100152.78;3373493;85;99309;-86
2022/05/27 04:34:16;;;;;;;12.10;7.00;;;;;;;13.99;94.20;100147.03;3418179;84;99316;-88
2022/05/27 04:39:17;;;;;;;12.03;7.37;;;;;;;14.01;94.05;100152.36;3401207;84;98998;-89
2022/05/27 04:44:18;;;;;;;13.03;6.53;;;;;;;14.04;94.44;100150.76;3401809;84;98936;-89
2022/05/27 04:54:38;;;;;;;9.98;6.97;;;;;;;14.07;94.73;100149.95;3369455;85;99080;-89
2022/05/27 04:59:40;;;;;;;11.00;6.87;;;;;;;14.07;95.69;100152.73;3369479;84;98804;-88
2022/05/27 05:04:41;;;;;;;11.90;6.22;;;;;;;14.10;94.95;100147.16;3363858;84;99513;-88
2022/05/27 05:09:43;;;;;;;9.83;6.30;;;;;;;14.12;95.61;100147.53;3350977;84;99264;-88
2022/05/27 05:14:43;;;;;;;9.57;6.00;;;;;;;14.16;95.55;100138.61;3292176;87;98446;-88
2022/05/27 05:19:45;;;;;;;9.57;5.63;;;;;;;14.19;96.12;100135.06;3383909;84;98886;-90
2022/05/27 05:24:46;;;;;;;9.17;5.70;;;;;;;14.27;95.98;100139.92;3393992;84;98995;-85
2022/05/27 05:29:47;;;;;;;10.67;6.10;;;;;;;14.27;95.98;100139.92;3404792;84;99332;-88
2022/05/27 05:34:49;;;;;;;10.47;5.60;;;;;;;14.29;96.64;100128.63;3381784;84;99380;-87
2022/05/27 05:39:50;;;;;;;10.27;6.03;;;;;;;14.33;96.81;100126.62;3359258;85;99024;-85
2022/05/27 05:44:51;;;;;;;8.63;5.10;;;;;;;14.41;96.71;100134.27;3364761;84;99562;-84
2022/05/27 05:49:52;;;;;;;8.67;5.10;;;;;;;14.46;96.88;100132.45;3401405;84;33314;-83
2022/05/27 05:54:53;;;;;;;8.77;5.30;;;;;;;14.49;96.58;100134.41;3381980;84;98787;-84
2022/05/27 05:59:55;;;;;;;8.50;4.93;;;;;;;14.56;96.32;100135.72;3400579;84;99299;-83
2022/05/27 06:04:56;;;;;;;9.97;4.90;;;;;;;14.62;95.86;100127.95;3400434;84;98764;-81
2022/05/27 06:09:57;;;;;;;11.97;5.77;;;;;;;14.70;95.69;100119.73;3392929;84;98822;-83
2022/05/27 06:15:00;;;;;;;8.73;5.63;;;;;;;14.76;95.36;100120.86;3375023;84;99410;-85
2022/05/27 06:20:04;;;;;;;8.73;5.20;;;;;;;14.80;95.30;100124.39;3394674;85;25888;-83
2022/05/27 06:25:06;;;;;;;8.25;5.15;;;;;;;14.87;94.74;100131.23;3365868;84;98698;-82
2022/05/27 06:35:28;;;;;;;11.30;5.23;;;;;;;14.96;94.58;100140.44;3371882;84;99258;-83
2022/05/27 06:40:29;;;;;;;11.87;5.30;;;;;;;14.95;93.84;100136.89;3381202;84;99477;-83
2022/05/27 06:45:30;;;;;;;8.33;4.85;;;;;;;14.96;93.39;100130.14;3385286;84;99754;-83
2022/05/27 06:50:33;;;;;;;8.93;5.07;;;;;;;15.02;93.17;100127.10;3398582;85;33331;-83
2022/05/27 06:55:33;;;;;;;11.20;4.87;;;;;;;15.03;92.88;100125.89;3365858;85;98734;-81
2022/05/27 07:00:34;;;;;;;12.83;5.40;;;;;;;15.07;92.31;100134.16;3383301;84;98910;-82
2022/05/27 07:05:36;;;;;;;8.67;4.33;;;;;;;15.08;92.15;100129.60;3358918;85;98991;-83
2022/05/27 07:10:37;;;;;;;10.40;5.03;;;;;;;15.08;92.11;100142.66;3386600;84;99275;-82
2022/05/27 07:15:38;;;;;;;9.43;4.80;;;;;;;15.11;91.94;100136.30;3369795;84;99400;-83
2022/05/27 07:20:41;;;;;;;8.53;5.20;;;;;;;15.15;91.34;100152.30;3415028;84;33286;-83
2022/05/27 07:25:44;;;;;;;10.33;4.90;;;;;;;15.17;91.00;100152.08;3353495;85;98602;-84
2022/05/27 07:30:45;;;;;;;10.13;4.20;;;;;;;15.21;90.30;100155.56;3362818;84;99164;-82
2022/05/27 07:35:47;;;;;;;7.43;4.27;;;;;;;15.24;90.09;100140.09;3364758;84;99460;-82
2022/05/27 07:40:49;;;;;;;9.88;4.00;;;;;;;15.27;89.56;100155.30;3360181;85;98870;-83
2022/05/27 07:45:50;;;;;;;7.70;3.77;;;;;;;15.31;89.64;100113.69;3379569;84;98821;-82
2022/05/27 07:50:51;;;;;;;8.60;3.87;;;;;;;15.39;89.08;100090.22;3361919;84;100781;-84
2022/05/27 07:55:52;;;;;;;6.60;3.40;;;;;;;15.47;88.16;100077.22;3376593;84;26395;-82
2022/05/27 08:00:53;;;;;;;7.97;4.30;;;;;;;15.59;88.33;100119.64;3395424;84;98526;-82
2022/05/27 08:05:58;;;;;;;11.27;4.43;;;;;;;15.66;86.88;100125.11;3399479;84;98940;-83
2022/05/27 08:11:00;;;;;;;9.23;3.23;;;;;;;15.75;85.92;100125.36;3349597;85;99393;-84
2022/05/27 08:16:02;;;;;;;8.47;3.40;;;;;;;15.75;85.02;100119.80;3345051;84;98023;-84
2022/05/27 08:21:03;;;;;;;6.73;2.90;;;;;;;15.82;83.99;100123.09;3362115;84;99181;-85
2022/05/27 08:26:04;;;;;;;9.63;3.67;;;;;;;15.89;83.15;100120.20;3331440;85;25987;-83
2022/05/27 08:31:05;;;;;;;4.47;2.33;;;;;;;15.96;82.35;100093.74;3393312;83;98752;-82
2022/05/27 08:41:46;;;;;;;6.03;1.77;;;;;;;16.11;79.01;100061.73;3384481;84;99235;-81
2022/05/27 08:47:11;;;;;;;4.87;1.75;;;;;;;16.20;77.92;100088.37;3392738;84;99183;-82
2022/05/27 08:52:33;;;;;;;4.67;1.70;;;;;;;16.17;76.64;100100.30;3383280;84;98990;-85
2022/05/27 09:03:05;;;;;;;5.75;1.98;;;;;;;16.12;73.78;100116.84;3399825;84;99424;-83
2022/05/27 09:08:14;;;;;;;6.47;2.15;;;;;;;16.05;72.26;100105.88;3406919;84;25914;-82
2022/05/27 09:13:23;;;;;;;4.27;1.83;;;;;;;16.03;71.80;100107.50;3392663;84;98756;-81
2022/05/27 09:18:52;;;;;;;7.47;1.53;;;;;;;16.12;71.44;100098.80;3380342;84;97993;-83
2022/05/27 09:24:01;;;;;;;3.20;1.47;;;;;;;16.31;70.18;100099.48;3362321;84;98878;-80
2022/05/27 09:29:08;;;;;;;3.85;1.82;;;;;;;16.52;70.92;100093.55;3402927;84;99546;-83
2022/05/27 09:34:12;;;;;;;5.80;2.17;;;;;;;16.86;71.69;100091.34;3392437;83;98405;-83
2022/05/27 09:39:16;;;;;;;3.47;1.50;;;;;;;17.11;70.84;100084.65;3405452;83;98870;-82
2022/05/27 09:44:33;;;;;;;3.27;1.47;;;;;;;17.21;68.86;100071.13;3355853;85;98583;-82
2022/05/27 09:49:35;;;;;;;4.58;2.05;;;;;;;17.68;69.81;100082.23;3381829;84;98738;-81
2022/05/27 09:54:46;;;;;;;6.03;2.10;;;;;;;17.91;66.53;100070.94;3393140;84;98842;-84
2022/05/27 09:59:53;;;;;;;4.53;1.67;;;;;;;18.39;63.90;100080.69;3382034;84;99188;-79
2022/05/27 10:05:17;;;;;;;4.50;1.70;;;;;;;18.37;63.68;100057.27;3395122;84;99370;-82
2022/05/27 10:10:35;;;;;;;4.97;1.80;;;;;;;18.79;64.16;100055.50;3383160;84;98854;-81
2022/05/27 10:15:38;;;;;;;6.72;1.70;;;;;;;19.21;62.73;100061.27;3394660;84;98862;-81
2022/05/27 10:20:39;;;;;;;4.47;1.80;;;;;;;19.20;59.66;100056.09;3373445;84;26909;-81
2022/05/27 10:25:43;;;;;;;7.33;2.10;;;;;;;19.38;61.04;100050.19;3388648;84;98859;-81
2022/05/27 10:30:59;;;;;;;6.60;2.12;;;;;;;19.76;60.18;100048.78;3387926;83;98866;-79
2022/05/27 10:36:01;;;;;;;6.28;2.12;;;;;;;19.82;58.46;100051.97;3397827;81;98885;-80
2022/05/27 10:41:50;;;;;;;11.00;2.72;;;;;;;19.98;58.77;100046.86;3343848;85;99226;-81
2022/05/27 10:46:58;;;;;;;6.12;1.60;;;;;;;20.23;55.92;100042.66;3384214;83;99596;-81
2022/05/27 10:52:05;;;;;;;4.80;2.55;;;;;;;20.64;57.36;100042.38;3386143;83;99337;-82
2022/05/27 11:02:48;;;;;;;5.35;1.67;;;;;;;21.37;54.29;100034.03;3375978;85;99078;-81
2022/05/27 11:08:24;;;;;;;7.67;1.70;;;;;;;21.44;52.84;100035.17;3396224;83;97579;-81
2022/05/27 11:20:04;;;;;;;235.57;38.48;;;;;;;21.44;50.40;100044.97;3390597;84;98733;-81
2022/05/27 11:25:33;;;;;;;10.53;2.95;;;;;;;21.43;50.44;100034.23;3401217;84;99272;-82
2022/05/27 11:30:57;;;;;;;5.70;2.00;;;;;;;21.41;50.19;100038.88;3330840;86;99690;-81
2022/05/27 11:36:21;;;;;;;5.70;1.22;;;;;;;21.14;48.76;100049.92;3395866;85;98845;-81
2022/05/27 11:41:45;;;;;;;6.95;2.47;;;;;;;21.21;49.05;100046.09;3397788;84;99220;-84
2022/05/27 11:47:14;;;;;;;4.15;1.82;;;;;;;21.43;47.01;100042.62;3431389;83;99294;-82
2022/05/27 11:52:23;;;;;;;9.48;2.15;;;;;;;21.73;48.09;100040.44;3382401;84;99472;-84
2022/05/27 11:57:35;;;;;;;5.15;1.85;;;;;;;22.01;46.81;100026.69;3381194;85;99338;-81
2022/05/27 12:02:51;;;;;;;6.20;1.90;;;;;;;22.16;43.38;100043.05;3392399;84;99256;-81
2022/05/27 12:08:06;;;;;;;4.47;1.37;;;;;;;22.42;41.84;100021.89;3374890;84;98533;-82
2022/05/27 12:13:31;;;;;;;7.05;1.80;;;;;;;22.51;42.25;100018.49;3376029;84;99194;-81
2022/05/27 12:18:51;;;;;;;6.62;1.98;;;;;;;22.59;43.82;100026.77;3406267;83;98745;-81
2022/05/27 12:23:57;;;;;;;5.05;1.40;;;;;;;22.46;42.73;100027.52;3384499;84;99192;-81
2022/05/27 12:29:01;;;;;;;;;;;;;;;22.30;41.79;100032.03;3403491;83;98459;-81
2022/05/27 12:34:31;;;;;;;8.55;1.67;;;;;;;21.88;40.00;100034.42;3385681;84;86119;-82
2022/05/27 12:39:32;;;;;;;7.67;1.57;;;;;;;22.01;40.87;100029.48;3306330;84;98845;-82
2022/05/27 12:44:33;;;;;;;7.03;1.37;;;;;;;22.15;42.14;100015.66;3366808;85;98957;-81
2022/05/27 12:49:41;;;;;;;4.42;1.10;;;;;;;22.64;40.46;100011.33;3380569;84;98666;-83
2022/05/27 12:54:48;;;;;;;4.67;1.32;;;;;;;22.65;40.91;100009.47;3382452;84;98986;-79
2022/05/27 13:05:14;;;;;;;9.83;1.60;;;;;;;22.67;37.02;100018.17;3380363;84;98910;-79
2022/05/27 13:10:23;;;;;;;7.40;1.30;;;;;;;22.28;36.27;100004.30;3368651;84;99269;-81
2022/05/27 13:15:53;;;;;;;6.58;1.32;;;;;;;22.21;39.03;100000.37;3390312;84;98989;-80
2022/05/27 13:21:22;;;;;;;8.38;2.15;;;;;;;22.35;38.45;99996.34;3399527;84;99175;-80
2022/05/27 13:26:40;;;;;;;6.45;1.55;;;;;;;22.48;38.27;99987.20;3392377;84;26474;-80
2022/05/27 13:31:44;;;;;;;6.05;1.25;;;;;;;22.75;36.88;99999.00;3384148;84;99171;-78
2022/05/27 13:37:02;;;;;;;7.92;1.40;;;;;;;22.66;37.03;99981.56;3395229;84;98496;-80
2022/05/27 13:42:06;;;;;;;7.72;1.90;;;;;;;22.68;35.68;99989.52;3362719;83;99275;-80
2022/05/27 13:47:14;;;;;;;5.42;1.55;;;;;;;22.62;35.84;99989.98;3380902;84;99019;-79
2022/05/27 13:52:25;;;;;;;6.30;1.40;;;;;;;22.56;35.96;99972.23;3387624;84;98859;-78
2022/05/27 13:57:29;;;;;;;6.07;1.20;;;;;;;22.73;35.18;99969.25;3411784;83;99640;-79
2022/05/27 14:02:37;;;;;;;8.25;2.12;;;;;;;22.56;33.76;99964.58;3392818;85;98828;-79
2022/05/27 14:07:48;;;;;;;9.53;1.67;;;;;;;22.59;33.88;99962.86;3405283;84;98542;-81
2022/05/27 14:12:49;;;;;;;5.17;1.42;;;;;;;22.36;32.58;99972.69;3402724;84;98897;-81
2022/05/27 14:17:52;;;;;;;4.40;1.30;;;;;;;22.16;31.67;99963.16;3394955;84;98667;-79
2022/05/27 14:22:58;;;;;;;13.05;1.40;;;;;;;21.90;32.58;99968.91;3406801;84;98985;-80
2022/05/27 14:28:04;;;;;;;7.58;1.12;;;;;;;21.59;32.63;99966.77;3407777;83;98877;-80
2022/05/27 14:33:29;;;;;;;8.98;1.20;;;;;;;21.25;32.28;99980.97;3396609;83;98991;-79
2022/05/27 14:38:37;;;;;;;5.07;1.20;;;;;;;21.14;32.95;99981.36;3405185;84;98408;-81
2022/05/27 14:43:49;;;;;;;4.50;1.00;;;;;;;21.12;33.83;99967.06;3369368;84;98954;-81
2022/05/27 14:48:59;;;;;;;9.53;1.20;;;;;;;21.22;33.78;99974.88;3360176;85;99209;-80
2022/05/27 14:54:29;;;;;;;9.33;1.60;;;;;;;21.10;35.04;99985.55;3379715;84;98791;-79
2022/05/27 14:59:35;;;;;;;8.28;1.72;;;;;;;21.04;34.58;99988.78;3389355;84;99132;-80
2022/05/27 15:04:34;;;;;;;7.75;1.72;;;;;;;21.10;35.25;99989.75;3385296;84;99001;-80
2022/05/27 15:09:37;;;;;;;6.28;1.60;;;;;;;21.01;35.07;99984.88;3428935;83;98673;-81
2022/05/27 15:14:44;;;;;;;6.53;1.35;;;;;;;20.89;35.85;99985.75;3398723;84;98729;-81
2022/05/27 15:19:50;;;;;;;12.78;2.25;;;;;;;20.75;35.84;100012.02;3374113;84;98466;-82
2022/05/27 15:24:57;;;;;;;;;;;;;;;20.26;37.80;100022.17;3384560;83;99471;-83
2022/05/27 15:35:36;;;;;;;11.85;2.17;;;;;;;19.41;40.37;100068.81;3347571;83;99515;-80
2022/05/27 15:40:39;;;;;;;9.33;1.80;;;;;;;18.91;40.93;100061.72;3385658;84;99386;-80
2022/05/27 15:45:41;;;;;;;6.50;1.47;;;;;;;18.74;41.99;100065.02;3365159;84;99240;-80
2022/05/27 15:50:43;;;;;;;4.07;1.10;;;;;;;18.50;42.78;100064.47;3371090;84;26585;-80
2022/05/27 15:55:44;;;;;;;5.77;1.13;;;;;;;18.26;43.81;100067.87;3390137;84;98725;-80
2022/05/27 16:00:47;;;;;;;6.80;1.30;;;;;;;18.19;44.26;100070.83;3417040;84;102200;-79
2022/05/27 16:05:53;;;;;;;5.58;0.93;;;;;;;17.96;44.17;100064.85;3394490;84;99053;-81
2022/05/27 16:10:55;;;;;;;5.40;1.02;;;;;;;17.75;44.17;100079.28;3385270;84;99034;-80
2022/05/27 16:21:16;;;;;;;5.85;1.20;;;;;;;17.33;44.24;100076.03;3352078;83;99177;-81
2022/05/27 16:26:19;;;;;;;4.97;1.30;;;;;;;17.03;43.86;100083.84;3387176;83;98663;-79
2022/05/27 16:31:22;;;;;;;3.23;1.00;;;;;;;16.81;44.06;100085.48;3400042;84;99102;-82
2022/05/27 16:36:22;;;;;;;8.77;1.33;;;;;;;16.60;44.41;100087.27;3390167;84;98883;-78
2022/05/27 16:41:24;;;;;;;10.53;1.30;;;;;;;16.45;44.94;100081.81;3369453;84;99182;-77
2022/05/27 16:46:26;;;;;;;4.90;1.20;;;;;;;16.29;45.68;100093.55;3377386;84;99192;-79
2022/05/27 16:51:27;;;;;;;5.47;1.10;;;;;;;16.12;46.26;100090.48;3398862;84;99018;-80
2022/05/27 16:56:28;;;;;;;7.97;1.70;;;;;;;16.04;46.92;100094.59;3385628;84;98622;-77
2022/05/27 17:01:29;;;;;;;6.07;1.20;;;;;;;15.96;47.51;100089.58;3366536;84;99058;-79
2022/05/27 17:06:29;;;;;;;6.73;1.10;;;;;;;15.84;48.13;100097.87;3369749;84;98853;-80
2022/05/27 17:11:30;;;;;;;7.33;1.60;;;;;;;15.75;48.77;100105.94;3419964;83;99375;-78
2022/05/27 17:16:31;;;;;;;8.63;1.50;;;;;;;15.62;48.64;100116.05;3392758;84;99241;-80
2022/05/27 17:21:32;;;;;;;4.80;0.80;;;;;;;15.21;54.30;100164.50;3392495;84;99189;-81
2022/05/27 17:26:33;;;;;;;3.20;1.23;;;;;;;14.61;57.75;100229.44;3403337;84;33254;-81
2022/05/27 17:31:37;;;;;;;2.80;0.62;;;;;;;13.98;59.27;100240.92;3361903;84;99088;-80
2022/05/27 17:36:37;;;;;;;4.77;0.90;;;;;;;13.35;59.75;100185.33;3372093;83;98905;-82
2022/05/27 17:41:38;;;;;;;3.05;0.78;;;;;;;13.37;59.93;100162.23;3412537;84;99150;-81
2022/05/27 17:52:03;;;;;;;3.08;1.07;;;;;;;13.06;60.80;100155.44;3335290;85;98921;-81
2022/05/27 17:57:05;;;;;;;1.80;0.57;;;;;;;12.80;60.92;100140.09;3359475;85;32011;-80
2022/05/27 18:02:09;;;;;;;2.70;0.57;;;;;;;12.66;61.86;100137.38;3381033;83;99502;-80
2022/05/27 18:07:10;;;;;;;1.67;0.63;;;;;;;12.61;62.75;100146.64;3413808;83;98706;-80
2022/05/27 18:12:32;;;;;;;2.30;0.60;;;;;;;12.56;63.19;100160.27;3389651;84;98846;31
2022/05/27 18:17:34;;;;;;;3.57;0.90;;;;;;;12.50;63.26;100177.04;3302372;87;99093;-80
2022/05/27 18:22:35;;;;;;;2.33;1.00;;;;;;;12.33;63.52;100182.56;3327271;84;99215;-79
2022/05/27 18:27:37;;;;;;;3.27;1.10;;;;;;;12.15;64.48;100188.05;3349544;85;98865;-80
2022/05/27 18:32:38;;;;;;;3.50;1.00;;;;;;;11.97;65.68;100203.00;3328645;86;99164;-80
2022/05/27 18:37:39;;;;;;;3.07;0.80;;;;;;;11.84;66.95;100223.87;3338505;86;98760;-81
2022/05/27 18:42:40;;;;;;;4.27;1.03;;;;;;;11.76;67.53;100227.19;3379155;83;99427;-80
2022/05/27 18:47:41;;;;;;;3.50;1.00;;;;;;;11.64;68.30;100207.45;3441504;83;99280;-82
2022/05/27 18:52:42;;;;;;;1.32;0.80;;;;;;;11.50;69.55;100166.83;3442326;81;99070;-82
2022/05/27 18:57:43;;;;;;;5.50;1.30;;;;;;;11.47;69.99;100164.86;3452733;84;98871;-81
2022/05/27 19:02:44;;;;;;;2.50;1.23;;;;;;;11.43;70.23;100154.98;3402025;84;98854;-81
2022/05/27 19:07:47;;;;;;;2.23;0.97;;;;;;;11.40;70.12;100158.53;3418386;84;98782;-81
2022/05/27 19:12:49;;;;;;;4.67;1.40;;;;;;;11.33;70.26;100160.67;3469189;83;99098;-83
2022/05/27 19:17:50;;;;;;;9.07;1.90;;;;;;;11.20;70.52;100157.27;3395828;82;99219;-83
2022/05/27 19:22:52;;;;;;;5.07;1.17;;;;;;;10.98;70.59;100161.10;3383751;84;98870;-82
2022/05/27 19:27:54;;;;;;;2.53;1.20;;;;;;;10.85;71.67;100163.39;3460971;82;98867;-82
2022/05/27 19:32:55;;;;;;;6.17;1.83;;;;;;;10.74;71.60;100163.91;3395585;84;98918;-83
2022/05/27 19:37:55;;;;;;;8.73;2.37;;;;;;;10.66;72.09;100179.39;3413090;83;98588;-82
2022/05/27 19:42:57;;;;;;;6.60;1.60;;;;;;;10.57;72.60;100172.08;3404363;83;98802;-83
2022/05/27 19:47:58;;;;;;;4.67;1.93;;;;;;;10.45;72.75;100163.53;3401450;84;98898;-82
2022/05/27 19:52:59;;;;;;;2.40;1.07;;;;;;;10.35;73.06;100165.61;3385320;83;98941;-82
2022/05/27 20:08:39;;;;;;;6.43;1.30;;;;;;;10.22;73.92;100160.80;3455022;83;98450;-88
2022/05/27 20:13:40;;;;;;;3.93;1.10;;;;;;;10.12;74.00;100165.04;3392760;83;99005;-88
2022/05/27 20:18:42;;;;;;;7.27;2.17;;;;;;;10.00;75.92;100152.93;3412323;84;98813;-89
2022/05/27 20:23:43;;;;;;;6.00;1.40;;;;;;;9.91;74.72;100151.07;3407424;84;98975;-89
2022/05/27 20:28:43;;;;;;;3.97;1.33;;;;;;;9.84;75.22;100152.95;3405536;84;98440;-88
2022/05/27 20:33:44;;;;;;;5.07;1.37;;;;;;;9.76;76.04;100150.72;3429187;82;98895;-89
2022/05/27 20:38:45;;;;;;;4.23;1.20;;;;;;;9.71;75.80;100146.94;3417309;84;31762;-89
2022/05/27 20:43:47;;;;;;;6.07;1.20;;;;;;;9.68;76.09;100145.53;3403195;83;99320;-88
2022/05/27 20:48:49;;;;;;;4.33;1.27;;;;;;;9.63;76.43;100150.00;3418434;84;98555;-86
2022/05/27 20:53:50;;;;;;;5.40;1.57;;;;;;;9.59;76.91;100142.33;3413647;83;98737;-89
2022/05/27 20:58:51;;;;;;;4.50;1.10;;;;;;;9.56;77.05;100145.81;3418295;83;98909;-89
2022/05/27 21:03:54;;;;;;;4.00;1.20;;;;;;;9.51;76.69;100142.83;3383027;84;99174;-88
2022/05/27 21:08:56;;;;;;;4.67;1.23;;;;;;;9.47;77.22;100139.25;3405446;84;31694;-88
2022/05/27 21:14:01;;;;;;;6.45;1.12;;;;;;;9.42;78.01;100140.95;3438682;83;98749;-86
2022/05/27 21:19:05;;;;;;;7.10;1.37;;;;;;;9.37;77.27;100135.80;3457010;82;98664;-87
2022/05/27 21:24:08;;;;;;;5.15;1.20;;;;;;;9.34;77.77;100142.63;3440617;83;98520;-87
2022/05/27 21:29:09;;;;;;;6.20;1.47;;;;;;;9.30;78.03;100151.40;3374522;84;98484;-87
2022/05/27 21:34:11;;;;;;;6.97;1.30;;;;;;;9.30;77.97;100148.66;3438820;83;98411;-88
2022/05/27 21:39:18;;;;;;;4.73;1.40;;;;;;;9.30;78.09;100150.02;3416583;83;27647;-87
2022/05/27 21:44:19;;;;;;;;;;;;;;;9.35;78.61;100140.08;3426176;82;98408;-88
2022/05/27 21:49:19;;;;;;;5.92;1.80;;;;;;;9.39;79.91;100138.17;3424317;83;84554;-88
2022/05/27 21:54:20;;;;;;;6.33;1.40;;;;;;;9.40;78.95;100138.38;3414113;84;98962;-90
2022/05/27 21:59:21;;;;;;;6.20;1.00;;;;;;;9.42;78.54;100134.09;3407263;83;98994;-89
2022/05/27 22:04:22;;;;;;;5.90;1.40;;;;;;;9.46;78.23;100123.94;3393853;83;98573;-89
2022/05/27 22:14:43;;;;;;;4.97;0.90;;;;;;;9.50;78.00;100122.59;3444430;83;98508;-89
2022/05/27 22:19:44;;;;;;;7.17;1.03;;;;;;;9.49;78.07;100117.67;3438032;82;98338;-85
2022/05/27 22:24:46;;;;;;;5.20;1.07;;;;;;;9.50;78.13;100112.41;3417567;84;99115;-86
2022/05/27 22:29:47;;;;;;;6.83;1.63;;;;;;;9.51;78.24;100109.06;3447611;81;98896;-86
2022/05/27 22:34:49;;;;;;;6.73;1.00;;;;;;;9.47;78.73;100103.53;3423966;83;99262;-86
2022/05/27 22:39:51;;;;;;;4.67;1.00;;;;;;;9.46;78.37;100097.84;3464469;82;98509;-87
2022/05/27 22:44:52;;;;;;;5.20;1.30;;;;;;;9.44;78.76;100097.41;3457279;84;98257;-86
2022/05/27 22:49:53;;;;;;;6.10;1.43;;;;;;;9.40;79.10;100091.11;3450574;83;98368;-86
2022/05/27 22:54:54;;;;;;;5.60;1.13;;;;;;;9.38;79.26;100075.58;3400023;84;98670;-87
2022/05/27 22:59:55;;;;;;;6.17;1.00;;;;;;;9.37;79.11;100074.60;3401142;85;98892;-86
2022/05/27 23:04:56;;;;;;;5.22;1.00;;;;;;;9.34;79.46;100065.73;3394625;83;98852;-87
2022/05/27 23:09:57;;;;;;;5.57;1.00;;;;;;;9.31;79.74;100061.78;3412183;82;98933;-85
2022/05/27 23:20:18;;;;;;;5.97;1.63;;;;;;;9.25;79.52;100044.08;3413025;83;98371;-88
2022/05/27 23:25:19;;;;;;;8.87;1.50;;;;;;;9.21;79.85;100060.31;3402493;82;98370;-87
2022/05/27 23:30:22;;;;;;;4.80;1.20;;;;;;;9.20;80.87;100047.73;3400316;83;98456;-89
2022/05/27 23:35:23;;;;;;;6.05;0.98;;;;;;;9.21;80.31;100046.59;3375962;84;98477;-83
2022/05/27 23:40:24;;;;;;;4.70;0.70;;;;;;;9.20;80.56;100043.61;3415382;85;99627;-86
2022/05/27 23:45:25;;;;;;;6.60;1.40;;;;;;;9.22;80.33;100027.57;3392181;85;98352;-86
2022/05/27 23:50:26;;;;;;;5.53;1.23;;;;;;;9.24;80.33;100023.84;3414072;85;98356;-87
2022/05/27 23:55:28;;;;;;;4.50;1.20;;;;;;;9.26;80.67;100021.53;3421058;83;98396;-86
